weather.gov     
National Weather Service

Terminal Aerodrome Forecast
NWS Homepage
This page is being discontinued on March 12, 2014.
The same data is available at this site. Please update your bookmarks.
Thank you, and we apologize for the inconvenience.
Please send an email to SR-SRH.Webmaster@noaa.gov with any concerns.


Current Version
Previous Version:    01  02  03  04  05  06  07  08  09  10  11  12  13  14  15  16  17  18  19  20  21  22  23  24  25  26  27  28  29  
[Printable]
880
FTUS43 KGLD 162300
TAFMCK
TAF
KMCK 162320Z 1700/1724 36016KT P6SM SCT070 BKN230
     FM170200 03010KT P6SM FEW070 BKN230
     FM170900 02007KT P6SM SCT025 BKN200
     FM171500 08008KT P6SM SCT035 BKN070
     FM171800 13007KT P6SM BKN070
     FM172100 17011KT P6SM BKN070=


U.S. Dept. of Commerce
NOAA National Weather Service
1325 East West Highway
Silver Spring, MD 20910
E-mail: w-nws.webmaster@noaa.gov
Page last modified: May 16, 2007
NATIONAL WEATHER SERVICE: for Safety, for Work, for Fun - FOR LIFE